sensor_id;sensor_type;location;lat;lon;timestamp;pressure;altitude;pressure_sealevel;temperature
76541;BMP280;65385;55.772;37.658;2022-12-18T00:00:53;99260.72;;;-4.26
76541;BMP280;65385;55.772;37.658;2022-12-18T00:01:58;99267.75;;;-4.28
76541;BMP280;65385;55.772;37.658;2022-12-18T00:02:59;99263.59;;;-4.29
76541;BMP280;65385;55.772;37.658;2022-12-18T00:04:02;99261.31;;;-4.24
76541;BMP280;65385;55.772;37.658;2022-12-18T00:05:06;99255.63;;;-4.26
76541;BMP280;65385;55.772;37.658;2022-12-18T00:06:07;99254.19;;;-4.28
76541;BMP280;65385;55.772;37.658;2022-12-18T00:07:08;99249.25;;;-4.30
76541;BMP280;65385;55.772;37.658;2022-12-18T00:08:09;99242.22;;;-4.28
76541;BMP280;65385;55.772;37.658;2022-12-18T00:09:10;99244.50;;;-4.33
76541;BMP280;65385;55.772;37.658;2022-12-18T00:10:10;99232.97;;;-4.29
76541;BMP280;65385;55.772;37.658;2022-12-18T00:11:13;99255.63;;;-4.26
76541;BMP280;65385;55.772;37.658;2022-12-18T00:12:14;99232.53;;;-4.32
76541;BMP280;65385;55.772;37.658;2022-12-18T00:13:16;99241.28;;;-4.27
76541;BMP280;65385;55.772;37.658;2022-12-18T00:14:17;99233.63;;;-4.27
76541;BMP280;65385;55.772;37.658;2022-12-18T00:15:17;99225.16;;;-4.27
76541;BMP280;65385;55.772;37.658;2022-12-18T00:16:20;99221.19;;;-4.30
76541;BMP280;65385;55.772;37.658;2022-12-18T00:17:21;99225.50;;;-4.30
76541;BMP280;65385;55.772;37.658;2022-12-18T00:18:22;99218.19;;;-4.33
76541;BMP280;65385;55.772;37.658;2022-12-18T00:19:22;99227.44;;;-4.32
76541;BMP280;65385;55.772;37.658;2022-12-18T00:20:23;99210.38;;;-4.32
76541;BMP280;65385;55.772;37.658;2022-12-18T00:21:30;99213.88;;;-4.33
76541;BMP280;65385;55.772;37.658;2022-12-18T00:22:31;99214.84;;;-4.34
76541;BMP280;65385;55.772;37.658;2022-12-18T00:23:33;99214.50;;;-4.31
76541;BMP280;65385;55.772;37.658;2022-12-18T00:24:34;99215.47;;;-4.32
76541;BMP280;65385;55.772;37.658;2022-12-18T00:25:35;99208.44;;;-4.30
76541;BMP280;65385;55.772;37.658;2022-12-18T00:26:37;99212.41;;;-4.27
76541;BMP280;65385;55.772;37.658;2022-12-18T00:27:39;99209.09;;;-4.36
76541;BMP280;65385;55.772;37.658;2022-12-18T00:28:39;99216.88;;;-4.37
76541;BMP280;65385;55.772;37.658;2022-12-18T00:29:40;99217.69;;;-4.37
76541;BMP280;65385;55.772;37.658;2022-12-18T00:30:41;99212.59;;;-4.37
76541;BMP280;65385;55.772;37.658;2022-12-18T00:31:42;99216.88;;;-4.29
76541;BMP280;65385;55.772;37.658;2022-12-18T00:32:43;99205.59;;;-4.35
76541;BMP280;65385;55.772;37.658;2022-12-18T00:33:44;99197.63;;;-4.32
76541;BMP280;65385;55.772;37.658;2022-12-18T00:34:45;99201.41;;;-4.28
76541;BMP280;65385;55.772;37.658;2022-12-18T00:35:45;99196.63;;;-4.31
76541;BMP280;65385;55.772;37.658;2022-12-18T00:36:47;99202.09;;;-4.34
76541;BMP280;65385;55.772;37.658;2022-12-18T00:37:48;99187.44;;;-4.40
76541;BMP280;65385;55.772;37.658;2022-12-18T00:38:49;99198.91;;;-4.36
76541;BMP280;65385;55.772;37.658;2022-12-18T00:39:51;99202.66;;;-4.24
76541;BMP280;65385;55.772;37.658;2022-12-18T00:40:54;99189.97;;;-4.32
76541;BMP280;65385;55.772;37.658;2022-12-18T00:41:54;99195.88;;;-4.39
76541;BMP280;65385;55.772;37.658;2022-12-18T00:43:14;99196.50;;;-4.37
76541;BMP280;65385;55.772;37.658;2022-12-18T00:44:16;99197.25;;;-4.29
76541;BMP280;65385;55.772;37.658;2022-12-18T00:45:17;99188.22;;;-4.31
76541;BMP280;65385;55.772;37.658;2022-12-18T00:46:18;99185.81;;;-4.33
76541;BMP280;65385;55.772;37.658;2022-12-18T00:47:18;99192.19;;;-4.37
76541;BMP280;65385;55.772;37.658;2022-12-18T00:48:19;99190.16;;;-4.41
76541;BMP280;65385;55.772;37.658;2022-12-18T00:49:20;99190.59;;;-4.38
76541;BMP280;65385;55.772;37.658;2022-12-18T00:50:21;99182.47;;;-4.33
76541;BMP280;65385;55.772;37.658;2022-12-18T00:51:23;99181.53;;;-4.32
76541;BMP280;65385;55.772;37.658;2022-12-18T00:52:24;99182.94;;;-4.38
76541;BMP280;65385;55.772;37.658;2022-12-18T00:53:25;99181.97;;;-4.37
76541;BMP280;65385;55.772;37.658;2022-12-18T00:54:25;99178.03;;;-4.39
76541;BMP280;65385;55.772;37.658;2022-12-18T00:55:26;99168.63;;;-4.39
76541;BMP280;65385;55.772;37.658;2022-12-18T00:56:27;99179.16;;;-4.42
76541;BMP280;65385;55.772;37.658;2022-12-18T00:57:27;99183.44;;;-4.34
76541;BMP280;65385;55.772;37.658;2022-12-18T00:58:28;99181.69;;;-4.34
76541;BMP280;65385;55.772;37.658;2022-12-18T00:59:28;99170.53;;;-4.33
76541;BMP280;65385;55.772;37.658;2022-12-18T01:00:30;99160.31;;;-4.33
76541;BMP280;65385;55.772;37.658;2022-12-18T01:01:31;99176.41;;;-4.32
76541;BMP280;65385;55.772;37.658;2022-12-18T01:02:32;99154.09;;;-4.38
76541;BMP280;65385;55.772;37.658;2022-12-18T01:03:33;99160.34;;;-4.41
76541;BMP280;65385;55.772;37.658;2022-12-18T01:04:34;99168.78;;;-4.40
76541;BMP280;65385;55.772;37.658;2022-12-18T01:05:39;99145.03;;;-4.41
76541;BMP280;65385;55.772;37.658;2022-12-18T01:06:40;99144.25;;;-4.41
76541;BMP280;65385;55.772;37.658;2022-12-18T01:07:41;99151.72;;;-4.40
76541;BMP280;65385;55.772;37.658;2022-12-18T01:08:42;99147.09;;;-4.36
76541;BMP280;65385;55.772;37.658;2022-12-18T01:09:46;99144.09;;;-4.40
76541;BMP280;65385;55.772;37.658;2022-12-18T01:10:47;99144.69;;;-4.38
76541;BMP280;65385;55.772;37.658;2022-12-18T01:11:47;99141.84;;;-4.43
76541;BMP280;65385;55.772;37.658;2022-12-18T01:12:48;99127.50;;;-4.36
76541;BMP280;65385;55.772;37.658;2022-12-18T01:13:53;99133.06;;;-4.32
76541;BMP280;65385;55.772;37.658;2022-12-18T01:14:56;99140.88;;;-4.34
76541;BMP280;65385;55.772;37.658;2022-12-18T01:15:57;99131.31;;;-4.40
76541;BMP280;65385;55.772;37.658;2022-12-18T01:16:57;99123.03;;;-4.42
76541;BMP280;65385;55.772;37.658;2022-12-18T01:17:58;99132.44;;;-4.42
76541;BMP280;65385;55.772;37.658;2022-12-18T01:19:01;99143.13;;;-4.39
76541;BMP280;65385;55.772;37.658;2022-12-18T01:20:02;99131.47;;;-4.33
76541;BMP280;65385;55.772;37.658;2022-12-18T01:21:14;99137.38;;;-4.41
76541;BMP280;65385;55.772;37.658;2022-12-18T01:22:15;99136.44;;;-4.40
76541;BMP280;65385;55.772;37.658;2022-12-18T01:23:16;99120.94;;;-4.38
76541;BMP280;65385;55.772;37.658;2022-12-18T01:24:16;99132.25;;;-4.33
76541;BMP280;65385;55.772;37.658;2022-12-18T01:25:17;99121.25;;;-4.33
76541;BMP280;65385;55.772;37.658;2022-12-18T01:26:18;99118.06;;;-4.35
76541;BMP280;65385;55.772;37.658;2022-12-18T01:27:19;99123.31;;;-4.37
76541;BMP280;65385;55.772;37.658;2022-12-18T01:28:19;99117.94;;;-4.42
76541;BMP280;65385;55.772;37.658;2022-12-18T01:29:20;99113.63;;;-4.41
76541;BMP280;65385;55.772;37.658;2022-12-18T01:30:21;99119.84;;;-4.44
76541;BMP280;65385;55.772;37.658;2022-12-18T01:32:23;99120.50;;;-4.42
76541;BMP280;65385;55.772;37.658;2022-12-18T01:33:24;99116.03;;;-4.40
76541;BMP280;65385;55.772;37.658;2022-12-18T01:34:25;99132.25;;;-4.33
76541;BMP280;65385;55.772;37.658;2022-12-18T01:35:25;99125.22;;;-4.31
76541;BMP280;65385;55.772;37.658;2022-12-18T01:36:29;99128.56;;;-4.38
76541;BMP280;65385;55.772;37.658;2022-12-18T01:37:31;99124.16;;;-4.44
76541;BMP280;65385;55.772;37.658;2022-12-18T01:38:31;99121.19;;;-4.48
76541;BMP280;65385;55.772;37.658;2022-12-18T01:39:33;99121.34;;;-4.49
76541;BMP280;65385;55.772;37.658;2022-12-18T01:40:33;99122.31;;;-4.50
76541;BMP280;65385;55.772;37.658;2022-12-18T01:41:34;99125.97;;;-4.53
76541;BMP280;65385;55.772;37.658;2022-12-18T01:42:54;99128.38;;;-4.52
76541;BMP280;65385;55.772;37.658;2022-12-18T01:43:57;99129.16;;;-4.51
76541;BMP280;65385;55.772;37.658;2022-12-18T01:44:59;99131.53;;;-4.49
76541;BMP280;65385;55.772;37.658;2022-12-18T01:46:00;99121.19;;;-4.48
76541;BMP280;65385;55.772;37.658;2022-12-18T01:47:00;99125.22;;;-4.54
76541;BMP280;65385;55.772;37.658;2022-12-18T01:48:05;99132.66;;;-4.52
76541;BMP280;65385;55.772;37.658;2022-12-18T01:49:07;99118.16;;;-4.52
76541;BMP280;65385;55.772;37.658;2022-12-18T01:50:14;99125.00;;;-4.52
76541;BMP280;65385;55.772;37.658;2022-12-18T01:51:16;99114.22;;;-4.54
76541;BMP280;65385;55.772;37.658;2022-12-18T01:52:17;99116.41;;;-4.51
76541;BMP280;65385;55.772;37.658;2022-12-18T01:53:20;99120.56;;;-4.50
76541;BMP280;65385;55.772;37.658;2022-12-18T01:54:22;99110.81;;;-4.46
76541;BMP280;65385;55.772;37.658;2022-12-18T01:55:25;99112.47;;;-4.54
76541;BMP280;65385;55.772;37.658;2022-12-18T01:56:26;99118.66;;;-4.56
76541;BMP280;65385;55.772;37.658;2022-12-18T01:57:28;99101.13;;;-4.59
76541;BMP280;65385;55.772;37.658;2022-12-18T01:58:50;99113.16;;;-4.45
76541;BMP280;65385;55.772;37.658;2022-12-18T01:59:54;99117.56;;;-4.54
76541;BMP280;65385;55.772;37.658;2022-12-18T02:00:57;99117.72;;;-4.55
76541;BMP280;65385;55.772;37.658;2022-12-18T02:01:57;99107.53;;;-4.55
76541;BMP280;65385;55.772;37.658;2022-12-18T02:02:59;99113.72;;;-4.58
76541;BMP280;65385;55.772;37.658;2022-12-18T02:06:40;99111.69;;;-4.62
76541;BMP280;65385;55.772;37.658;2022-12-18T02:09:12;99109.63;;;-4.67
76541;BMP280;65385;55.772;37.658;2022-12-18T02:12:13;99095.13;;;-4.66
76541;BMP280;65385;55.772;37.658;2022-12-18T02:15:17;99106.28;;;-4.67
76541;BMP280;65385;55.772;37.658;2022-12-18T02:16:45;99101.38;;;-4.69
76541;BMP280;65385;55.772;37.658;2022-12-18T02:17:53;99113.94;;;-4.67
76541;BMP280;65385;55.772;37.658;2022-12-18T02:18:58;99096.44;;;-4.70
76541;BMP280;65385;55.772;37.658;2022-12-18T02:26:58;99111.09;;;-4.72
76541;BMP280;65385;55.772;37.658;2022-12-18T02:28:04;99107.28;;;-4.68
76541;BMP280;65385;55.772;37.658;2022-12-18T02:29:16;99116.03;;;-4.71
76541;BMP280;65385;55.772;37.658;2022-12-18T02:30:19;99116.19;;;-4.72
76541;BMP280;65385;55.772;37.658;2022-12-18T02:31:29;99126.06;;;-4.69
76541;BMP280;65385;55.772;37.658;2022-12-18T02:32:37;99106.78;;;-4.72
76541;BMP280;65385;55.772;37.658;2022-12-18T02:33:40;99098.78;;;-4.61
76541;BMP280;65385;55.772;37.658;2022-12-18T02:34:43;99102.16;;;-4.68
76541;BMP280;65385;55.772;37.658;2022-12-18T02:35:48;99110.94;;;-4.71
76541;BMP280;65385;55.772;37.658;2022-12-18T02:36:50;99107.59;;;-4.71
76541;BMP280;65385;55.772;37.658;2022-12-18T02:37:55;99107.59;;;-4.71
76541;BMP280;65385;55.772;37.658;2022-12-18T02:38:58;99104.88;;;-4.70
76541;BMP280;65385;55.772;37.658;2022-12-18T02:40:00;99100.75;;;-4.71
76541;BMP280;65385;55.772;37.658;2022-12-18T02:41:04;99110.41;;;-4.66
76541;BMP280;65385;55.772;37.658;2022-12-18T02:42:06;99070.09;;;-4.63
76541;BMP280;65385;55.772;37.658;2022-12-18T02:43:13;99113.28;;;-4.61
76541;BMP280;65385;55.772;37.658;2022-12-18T02:44:14;99109.03;;;-4.69
76541;BMP280;65385;55.772;37.658;2022-12-18T02:45:16;99104.53;;;-4.67
76541;BMP280;65385;55.772;37.658;2022-12-18T02:47:32;99111.38;;;-4.67
76541;BMP280;65385;55.772;37.658;2022-12-18T02:48:34;99109.03;;;-4.69
76541;BMP280;65385;55.772;37.658;2022-12-18T02:51:21;99095.81;;;-4.72
76541;BMP280;65385;55.772;37.658;2022-12-18T02:53:44;99100.44;;;-4.76
76541;BMP280;65385;55.772;37.658;2022-12-18T02:54:55;99084.31;;;-4.68
76541;BMP280;65385;55.772;37.658;2022-12-18T02:56:09;99110.78;;;-4.69
76541;BMP280;65385;55.772;37.658;2022-12-18T02:57:24;99107.88;;;-4.74
76541;BMP280;65385;55.772;37.658;2022-12-18T02:58:40;99099.00;;;-4.70
76541;BMP280;65385;55.772;37.658;2022-12-18T02:59:56;99111.44;;;-4.75
76541;BMP280;65385;55.772;37.658;2022-12-18T03:01:03;99109.66;;;-4.75
76541;BMP280;65385;55.772;37.658;2022-12-18T03:04:04;99095.34;;;-4.76
76541;BMP280;65385;55.772;37.658;2022-12-18T03:05:21;99093.59;;;-4.75
76541;BMP280;65385;55.772;37.658;2022-12-18T03:06:32;99108.09;;;-4.76
76541;BMP280;65385;55.772;37.658;2022-12-18T03:07:57;99084.50;;;-4.78
76541;BMP280;65385;55.772;37.658;2022-12-18T03:09:09;99073.97;;;-4.75
76541;BMP280;65385;55.772;37.658;2022-12-18T03:10:15;99086.91;;;-4.76
76541;BMP280;65385;55.772;37.658;2022-12-18T03:11:18;99089.13;;;-4.73
76541;BMP280;65385;55.772;37.658;2022-12-18T03:12:45;99085.75;;;-4.74
76541;BMP280;65385;55.772;37.658;2022-12-18T03:13:53;99083.38;;;-4.75
76541;BMP280;65385;55.772;37.658;2022-12-18T03:15:10;99069.84;;;-4.76
76541;BMP280;65385;55.772;37.658;2022-12-18T03:16:16;99075.28;;;-4.79
76541;BMP280;65385;55.772;37.658;2022-12-18T03:17:20;99080.53;;;-4.80
76541;BMP280;65385;55.772;37.658;2022-12-18T03:18:25;99078.59;;;-4.70
76541;BMP280;65385;55.772;37.658;2022-12-18T03:19:29;99074.63;;;-4.73
76541;BMP280;65385;55.772;37.658;2022-12-18T03:20:34;99088.19;;;-4.80
76541;BMP280;65385;55.772;37.658;2022-12-18T03:21:43;99085.03;;;-4.82
76541;BMP280;65385;55.772;37.658;2022-12-18T03:22:51;99078.78;;;-4.80
76541;BMP280;65385;55.772;37.658;2022-12-18T03:23:54;99099.34;;;-4.81
76541;BMP280;65385;55.772;37.658;2022-12-18T03:25:00;99094.75;;;-4.86
76541;BMP280;65385;55.772;37.658;2022-12-18T03:26:07;99072.78;;;-4.87
76541;BMP280;65385;55.772;37.658;2022-12-18T03:27:14;99106.19;;;-4.82
76541;BMP280;65385;55.772;37.658;2022-12-18T03:28:21;99101.44;;;-4.85
76541;BMP280;65385;55.772;37.658;2022-12-18T03:29:40;99097.56;;;-4.81
76541;BMP280;65385;55.772;37.658;2022-12-18T03:30:46;99079.75;;;-4.81
76541;BMP280;65385;55.772;37.658;2022-12-18T03:31:54;99091.25;;;-4.85
76541;BMP280;65385;55.772;37.658;2022-12-18T03:33:07;99089.66;;;-4.86
76541;BMP280;65385;55.772;37.658;2022-12-18T03:34:17;99095.88;;;-4.89
76541;BMP280;65385;55.772;37.658;2022-12-18T03:35:26;99108.81;;;-4.90
76541;BMP280;65385;55.772;37.658;2022-12-18T03:36:30;99114.34;;;-4.86
76541;BMP280;65385;55.772;37.658;2022-12-18T03:37:31;99096.97;;;-4.83
76541;BMP280;65385;55.772;37.658;2022-12-18T03:38:32;99108.44;;;-4.87
76541;BMP280;65385;55.772;37.658;2022-12-18T03:39:34;99111.47;;;-4.83
76541;BMP280;65385;55.772;37.658;2022-12-18T03:41:03;99096.19;;;-4.83
76541;BMP280;65385;55.772;37.658;2022-12-18T03:44:48;99080.22;;;-4.77
76541;BMP280;65385;55.772;37.658;2022-12-18T03:45:57;99103.03;;;-4.84
76541;BMP280;65385;55.772;37.658;2022-12-18T03:47:14;99050.91;;;-4.81
76541;BMP280;65385;55.772;37.658;2022-12-18T03:48:31;99108.63;;;-4.89
76541;BMP280;65385;55.772;37.658;2022-12-18T03:51:16;99100.97;;;-4.89
76541;BMP280;65385;55.772;37.658;2022-12-18T03:52:23;99086.63;;;-4.90
76541;BMP280;65385;55.772;37.658;2022-12-18T03:53:48;99105.31;;;-4.97
76541;BMP280;65385;55.772;37.658;2022-12-18T03:54:53;99088.13;;;-5.03
76541;BMP280;65385;55.772;37.658;2022-12-18T03:55:57;99102.63;;;-5.04
76541;BMP280;65385;55.772;37.658;2022-12-18T03:57:13;99105.47;;;-4.99
76541;BMP280;65385;55.772;37.658;2022-12-18T03:58:19;99099.09;;;-5.03
76541;BMP280;65385;55.772;37.658;2022-12-18T03:59:31;99103.25;;;-5.02
76541;BMP280;65385;55.772;37.658;2022-12-18T04:00:33;99077.13;;;-5.04
76541;BMP280;65385;55.772;37.658;2022-12-18T04:01:46;99085.41;;;-5.02
76541;BMP280;65385;55.772;37.658;2022-12-18T04:02:51;99062.66;;;-5.03
76541;BMP280;65385;55.772;37.658;2022-12-18T04:03:59;99073.63;;;-5.03
76541;BMP280;65385;55.772;37.658;2022-12-18T04:05:03;99102.94;;;-4.99
76541;BMP280;65385;55.772;37.658;2022-12-18T04:06:06;99065.03;;;-5.02
76541;BMP280;65385;55.772;37.658;2022-12-18T04:07:07;99075.84;;;-5.00
76541;BMP280;65385;55.772;37.658;2022-12-18T04:08:12;99089.28;;;-5.06
76541;BMP280;65385;55.772;37.658;2022-12-18T04:09:18;99075.38;;;-5.03
76541;BMP280;65385;55.772;37.658;2022-12-18T04:10:20;99074.94;;;-5.07
76541;BMP280;65385;55.772;37.658;2022-12-18T04:11:21;99073.97;;;-5.06
76541;BMP280;65385;55.772;37.658;2022-12-18T04:12:26;99081.44;;;-5.04
76541;BMP280;65385;55.772;37.658;2022-12-18T04:13:34;99085.28;;;-5.08
76541;BMP280;65385;55.772;37.658;2022-12-18T04:14:36;99087.69;;;-5.07
76541;BMP280;65385;55.772;37.658;2022-12-18T04:15:41;99093.88;;;-5.09
76541;BMP280;65385;55.772;37.658;2022-12-18T04:16:45;99097.88;;;-5.07
76541;BMP280;65385;55.772;37.658;2022-12-18T04:17:49;99075.75;;;-5.06
76541;BMP280;65385;55.772;37.658;2022-12-18T04:18:54;99092.78;;;-5.07
76541;BMP280;65385;55.772;37.658;2022-12-18T04:19:56;99093.22;;;-5.03
76541;BMP280;65385;55.772;37.658;2022-12-18T04:20:58;99106.47;;;-5.08
76541;BMP280;65385;55.772;37.658;2022-12-18T04:21:59;99091.97;;;-5.07
76541;BMP280;65385;55.772;37.658;2022-12-18T04:23:00;99102.28;;;-5.01
76541;BMP280;65385;55.772;37.658;2022-12-18T04:24:01;99080.16;;;-5.00
76541;BMP280;65385;55.772;37.658;2022-12-18T04:25:03;99121.03;;;-4.94
76541;BMP280;65385;55.772;37.658;2022-12-18T04:26:10;99108.97;;;-5.00
76541;BMP280;65385;55.772;37.658;2022-12-18T04:27:31;99128.44;;;-5.07
76541;BMP280;65385;55.772;37.658;2022-12-18T04:28:33;99134.94;;;-5.04
76541;BMP280;65385;55.772;37.658;2022-12-18T04:29:34;99139.06;;;-5.03
76541;BMP280;65385;55.772;37.658;2022-12-18T04:30:35;99140.22;;;-5.06
76541;BMP280;65385;55.772;37.658;2022-12-18T04:31:35;99149.63;;;-5.06
76541;BMP280;65385;55.772;37.658;2022-12-18T04:32:37;99137.31;;;-5.11
76541;BMP280;65385;55.772;37.658;2022-12-18T04:33:38;99132.56;;;-5.06
76541;BMP280;65385;55.772;37.658;2022-12-18T04:34:39;99101.66;;;-5.11
76541;BMP280;65385;55.772;37.658;2022-12-18T04:35:40;99140.50;;;-5.09
76541;BMP280;65385;55.772;37.658;2022-12-18T04:36:41;99145.44;;;-4.99
76541;BMP280;65385;55.772;37.658;2022-12-18T04:37:42;99146.72;;;-5.03
76541;BMP280;65385;55.772;37.658;2022-12-18T04:38:42;99143.22;;;-5.02
76541;BMP280;65385;55.772;37.658;2022-12-18T04:39:47;99094.66;;;-5.01
76541;BMP280;65385;55.772;37.658;2022-12-18T04:40:55;99162.81;;;-5.03
76541;BMP280;65385;55.772;37.658;2022-12-18T04:41:59;99128.06;;;-4.96
76541;BMP280;65385;55.772;37.658;2022-12-18T04:43:00;99140.97;;;-4.97
76541;BMP280;65385;55.772;37.658;2022-12-18T04:44:01;99151.66;;;-5.02
76541;BMP280;65385;55.772;37.658;2022-12-18T04:45:02;99132.88;;;-5.01
76541;BMP280;65385;55.772;37.658;2022-12-18T04:46:07;99137.31;;;-5.03
76541;BMP280;65385;55.772;37.658;2022-12-18T04:47:08;99139.88;;;-5.03
76541;BMP280;65385;55.772;37.658;2022-12-18T04:48:08;99157.72;;;-5.03
76541;BMP280;65385;55.772;37.658;2022-12-18T04:49:10;99159.31;;;-5.10
76541;BMP280;65385;55.772;37.658;2022-12-18T04:50:14;99147.72;;;-5.12
76541;BMP280;65385;55.772;37.658;2022-12-18T04:51:14;99133.03;;;-5.10
76541;BMP280;65385;55.772;37.658;2022-12-18T04:52:15;99172.19;;;-5.11
76541;BMP280;65385;55.772;37.658;2022-12-18T04:53:16;99174.47;;;-5.08
76541;BMP280;65385;55.772;37.658;2022-12-18T04:54:20;99184.47;;;-5.15
76541;BMP280;65385;55.772;37.658;2022-12-18T04:55:20;99200.41;;;-5.13
76541;BMP280;65385;55.772;37.658;2022-12-18T04:56:21;99204.22;;;-5.17
76541;BMP280;65385;55.772;37.658;2022-12-18T04:57:21;99191.47;;;-5.17
76541;BMP280;65385;55.772;37.658;2022-12-18T04:58:22;99192.94;;;-5.22
76541;BMP280;65385;55.772;37.658;2022-12-18T04:59:23;99161.06;;;-5.10
76541;BMP280;65385;55.772;37.658;2022-12-18T05:00:24;99167.91;;;-5.11
76541;BMP280;65385;55.772;37.658;2022-12-18T05:01:24;99208.06;;;-5.13
76541;BMP280;65385;55.772;37.658;2022-12-18T05:02:25;99198.81;;;-5.14
76541;BMP280;65385;55.772;37.658;2022-12-18T05:03:26;99173.66;;;-5.17
76541;BMP280;65385;55.772;37.658;2022-12-18T05:04:26;99193.72;;;-5.06
76541;BMP280;65385;55.772;37.658;2022-12-18T05:05:27;99188.91;;;-5.09
76541;BMP280;65385;55.772;37.658;2022-12-18T05:06:28;99180.81;;;-5.12
76541;BMP280;65385;55.772;37.658;2022-12-18T05:07:28;99202.31;;;-5.15
76541;BMP280;65385;55.772;37.658;2022-12-18T05:08:29;99198.34;;;-5.17
76541;BMP280;65385;55.772;37.658;2022-12-18T05:09:29;99181.47;;;-5.18
76541;BMP280;65385;55.772;37.658;2022-12-18T05:10:30;99162.22;;;-5.21
76541;BMP280;65385;55.772;37.658;2022-12-18T05:11:31;99184.50;;;-5.23
76541;BMP280;65385;55.772;37.658;2022-12-18T05:12:31;99158.41;;;-5.25
76541;BMP280;65385;55.772;37.658;2022-12-18T05:13:32;99164.94;;;-5.22
76541;BMP280;65385;55.772;37.658;2022-12-18T05:14:33;99191.19;;;-5.22
76541;BMP280;65385;55.772;37.658;2022-12-18T05:15:34;99169.69;;;-5.19
76541;BMP280;65385;55.772;37.658;2022-12-18T05:16:35;99181.44;;;-5.10
76541;BMP280;65385;55.772;37.658;2022-12-18T05:17:35;99169.34;;;-5.16
76541;BMP280;65385;55.772;37.658;2022-12-18T05:18:37;99189.28;;;-5.20
76541;BMP280;65385;55.772;37.658;2022-12-18T05:19:37;99171.44;;;-5.20
76541;BMP280;65385;55.772;37.658;2022-12-18T05:20:38;99190.88;;;-5.19
76541;BMP280;65385;55.772;37.658;2022-12-18T05:21:38;99178.13;;;-5.19
76541;BMP280;65385;55.772;37.658;2022-12-18T05:22:39;99178.78;;;-5.25
76541;BMP280;65385;55.772;37.658;2022-12-18T05:23:40;99186.72;;;-5.28
76541;BMP280;65385;55.772;37.658;2022-12-18T05:24:40;99193.91;;;-5.23
76541;BMP280;65385;55.772;37.658;2022-12-18T05:25:41;99188.47;;;-5.29
76541;BMP280;65385;55.772;37.658;2022-12-18T05:26:42;99187.22;;;-5.25
76541;BMP280;65385;55.772;37.658;2022-12-18T05:27:43;99195.66;;;-5.24
76541;BMP280;65385;55.772;37.658;2022-12-18T05:28:44;99190.88;;;-5.27
76541;BMP280;65385;55.772;37.658;2022-12-18T05:29:44;99198.50;;;-5.27
76541;BMP280;65385;55.772;37.658;2022-12-18T05:30:52;99199.63;;;-5.30
76541;BMP280;65385;55.772;37.658;2022-12-18T05:31:53;99187.69;;;-5.21
76541;BMP280;65385;55.772;37.658;2022-12-18T05:32:54;99194.69;;;-5.23
76541;BMP280;65385;55.772;37.658;2022-12-18T05:33:55;99203.28;;;-5.24
76541;BMP280;65385;55.772;37.658;2022-12-18T05:34:55;99189.59;;;-5.23
76541;BMP280;65385;55.772;37.658;2022-12-18T05:36:00;99205.34;;;-5.28
76541;BMP280;65385;55.772;37.658;2022-12-18T05:37:04;99199.78;;;-5.23
76541;BMP280;65385;55.772;37.658;2022-12-18T05:38:04;99228.91;;;-5.26
76541;BMP280;65385;55.772;37.658;2022-12-18T05:39:05;99209.97;;;-5.23
76541;BMP280;65385;55.772;37.658;2022-12-18T05:40:07;99184.50;;;-5.23
76541;BMP280;65385;55.772;37.658;2022-12-18T05:41:08;99210.13;;;-5.16
76541;BMP280;65385;55.772;37.658;2022-12-18T05:42:09;99248.81;;;-5.21
76541;BMP280;65385;55.772;37.658;2022-12-18T05:43:10;99203.59;;;-5.27
76541;BMP280;65385;55.772;37.658;2022-12-18T05:44:11;99192.78;;;-5.29
76541;BMP280;65385;55.772;37.658;2022-12-18T05:45:11;99227.47;;;-5.28
76541;BMP280;65385;55.772;37.658;2022-12-18T05:46:14;99236.56;;;-5.26
76541;BMP280;65385;55.772;37.658;2022-12-18T05:47:15;99229.88;;;-5.27
76541;BMP280;65385;55.772;37.658;2022-12-18T05:48:16;99241.97;;;-5.29
76541;BMP280;65385;55.772;37.658;2022-12-18T05:49:17;99238.78;;;-5.31
76541;BMP280;65385;55.772;37.658;2022-12-18T05:50:17;99226.84;;;-5.22
76541;BMP280;65385;55.772;37.658;2022-12-18T05:51:20;99231.47;;;-5.26
76541;BMP280;65385;55.772;37.658;2022-12-18T05:52:21;99241.66;;;-5.26
76541;BMP280;65385;55.772;37.658;2022-12-18T05:53:21;99243.72;;;-5.21
76541;BMP280;65385;55.772;37.658;2022-12-18T05:54:22;99235.28;;;-5.30
76541;BMP280;65385;55.772;37.658;2022-12-18T05:55:23;99248.16;;;-5.31
76541;BMP280;65385;55.772;37.658;2022-12-18T05:56:23;99243.06;;;-5.31
76541;BMP280;65385;55.772;37.658;2022-12-18T05:57:24;99241.31;;;-5.31
76541;BMP280;65385;55.772;37.658;2022-12-18T05:58:24;99263.94;;;-5.28
76541;BMP280;65385;55.772;37.658;2022-12-18T05:59:25;99270.78;;;-5.28
76541;BMP280;65385;55.772;37.658;2022-12-18T06:00:26;99272.53;;;-5.29
76541;BMP280;65385;55.772;37.658;2022-12-18T06:01:27;99259.00;;;-5.29
76541;BMP280;65385;55.772;37.658;2022-12-18T06:02:27;99268.53;;;-5.31
76541;BMP280;65385;55.772;37.658;2022-12-18T06:03:28;99240.22;;;-5.28
76541;BMP280;65385;55.772;37.658;2022-12-18T06:04:31;99280.00;;;-5.27
76541;BMP280;65385;55.772;37.658;2022-12-18T06:05:36;99275.06;;;-5.29
76541;BMP280;65385;55.772;37.658;2022-12-18T06:06:38;99268.53;;;-5.31
76541;BMP280;65385;55.772;37.658;2022-12-18T06:07:38;99258.84;;;-5.36
76541;BMP280;65385;55.772;37.658;2022-12-18T06:08:39;99286.50;;;-5.33
76541;BMP280;65385;55.772;37.658;2022-12-18T06:09:40;99290.50;;;-5.30
76541;BMP280;65385;55.772;37.658;2022-12-18T06:10:41;99267.75;;;-5.32
76541;BMP280;65385;55.772;37.658;2022-12-18T06:11:42;99269.34;;;-5.31
76541;BMP280;65385;55.772;37.658;2022-12-18T06:12:42;99269.03;;;-5.28
76541;BMP280;65385;55.772;37.658;2022-12-18T06:13:43;99266.28;;;-5.26
76541;BMP280;65385;55.772;37.658;2022-12-18T06:14:43;99282.56;;;-5.27
76541;BMP280;65385;55.772;37.658;2022-12-18T06:15:44;99269.81;;;-5.27
76541;BMP280;65385;55.772;37.658;2022-12-18T06:16:45;99288.59;;;-5.28
76541;BMP280;65385;55.772;37.658;2022-12-18T06:17:45;99285.41;;;-5.30
76541;BMP280;65385;55.772;37.658;2022-12-18T06:18:46;99288.13;;;-5.32
76541;BMP280;65385;55.772;37.658;2022-12-18T06:19:47;99270.78;;;-5.28
76541;BMP280;65385;55.772;37.658;2022-12-18T06:20:57;99271.72;;;-5.29
76541;BMP280;65385;55.772;37.658;2022-12-18T06:21:57;99299.09;;;-5.31
76541;BMP280;65385;55.772;37.658;2022-12-18T06:22:59;99272.22;;;-5.26
76541;BMP280;65385;55.772;37.658;2022-12-18T06:24:00;99302.94;;;-5.27
76541;BMP280;65385;55.772;37.658;2022-12-18T06:25:01;99303.38;;;-5.32
76541;BMP280;65385;55.772;37.658;2022-12-18T06:26:07;99303.38;;;-5.32
76541;BMP280;65385;55.772;37.658;2022-12-18T06:27:08;99311.19;;;-5.33